INFORMAÇÕES DO AERODROMO
Icao Aerodromo SBGR Nome do Aerodromo Guarulhos - Governador André Franco Montoro International Airport Cidade São Paulo
Código GPS SBGR Elevação Média 2459 ft Tipo de Aerodromo Aeroporto Grande Porte

INFORMAÇÃO DE PISTA
Pista 09L Comprimento da Pista 12139 ft Largura da Pista 148 ft
Elevação da Pista 2445 ft Distância de Area de Escape da Pista 0 ft Orientação da Pista 74
Pista 27R Comprimento da Pista 12139 ft Largura da Pista 148 ft
Elevação da Pista 2440 ft Distância de Area de Escape da Pista 0 ft Orientação da Pista 254
Pista 09R Comprimento da Pista 9843 ft Largura da Pista 148 ft
Elevação da Pista 2450 ft Distância de Area de Escape da Pista 0 ft Orientação da Pista 74
Pista 27L Comprimento da Pista 9843 ft Largura da Pista 148 ft
Elevação da Pista 2445 ft Distância de Area de Escape da Pista 0 ft Orientação da Pista 254

FREQUÊNCIAS DO AERODROMO
Tipo APP Nome SAO PAULO Frequência 119.8 MHZ
Tipo ATIS Nome ATIS Frequência 127.75 MHZ
Tipo CLD Nome CLNC DEL Frequência 121 MHZ
Tipo GND Nome GND Frequência 121.7 MHZ
Tipo ILS: Nome RWY 27L Frequência 111.1 MHZ
Tipo OPS Nome SAO PAULO Frequência 122.5 MHZ
Tipo TWR Nome TWR Frequência 118.4 MHZ

INFORMAÇÕES DE NAVEGAÇÃO PRÓXIMO AO AERODROMO
Tipo VOR-DME Nome Bonsucesso Frequência 116000 KHZ
Tipo NDB Nome Perus Frequência 220 KHZ

Informações de Meteorologia(METAR atual)
METAR DE SBGR
ADDS - METARS form results

(0951 UTC 26 April 2018)
Data provider http://aviationweather.gov/adds/metars/
 
METAR text: SBGR 260900Z 05005KT 6000 SCT003 BKN005 18/18 Q1021
Conditions at: SBGR (GUARULHOS (CIV/M, BR) observed 0900 UTC 26 April 2018
Temperature: 18.0°C (64°F)
Dewpoint: 18.0°C (64°F) [RH = 100%]
Pressure (altimeter): 30.15 inches Hg (1021.0 mb)
Winds: from the NE (50 degrees) at 6 MPH (5 knots; 2.6 m/s)
Visibility: 4 miles (6 km)
Ceiling: 500 feet AGL
Clouds: scattered clouds at 300 feet AGL
broken clouds at 500 feet AGL
Weather: no significant weather observed at this time

Forecast for: SBGR (GUARULHOS (CIV/M, BR)
Text: TAF SBGR 260201Z 2606/2712 09002KT 8000 FEW011 TN15/2607Z TX27/2618Z
Forecast period: 0600 to 0700 UTC 26 April 2018
Forecast type: FROM: standard forecast or significant change
Winds: from the E (90 degrees) at 2 MPH (2 knots; 1.0 m/s)
Visibility: 5 miles (8 km)
Clouds: few clouds at 1100 feet AGL
Weather: no significant weather forecast for this period
Forecast for: SBGR (GUARULHOS (CIV/M, BR)
Text: TAF SBGR 260201Z 2606/2712 09002KT 8000 FEW011 TN15/2607Z TX27/2618Z
Forecast period: 0600 to 0700 UTC 26 April 2018
Forecast type: FROM: standard forecast or significant change
Winds: from the E (90 degrees) at 2 MPH (2 knots; 1.0 m/s)
Visibility: 5 miles (8 km)
Clouds: few clouds at 1100 feet AGL
Weather: no significant weather forecast for this period
Forecast for: SBGR (GUARULHOS (CIV/M, BR)
Text: TAF SBGR 260201Z 2606/2712 09002KT 8000 FEW011 TN15/2607Z TX27/2618Z
Forecast period: 0700 to 1100 UTC 26 April 2018
Forecast type: BECOMING: Conditions expected to become as follows by 0900 UTC 26 April 2018
Winds: from the E (80 degrees) at 3 MPH (3 knots; 1.6 m/s)
Visibility: 5 miles (8 km)
Ceiling: 800 feet AGL
Clouds: broken clouds at 800 feet AGL
Weather: no significant weather forecast for this period
Forecast for: SBGR (GUARULHOS (CIV/M, BR)
Text: TAF SBGR 260201Z 2606/2712 09002KT 8000 FEW011 TN15/2607Z TX27/2618Z
Forecast period: 0700 to 1100 UTC 26 April 2018
Forecast type: BECOMING: Conditions expected to become as follows by 0900 UTC 26 April 2018
Winds: from the E (80 degrees) at 3 MPH (3 knots; 1.6 m/s)
Visibility: 5 miles (8 km)
Ceiling: 800 feet AGL
Clouds: broken clouds at 800 feet AGL
Weather: no significant weather forecast for this period
Forecast for: SBGR (GUARULHOS (CIV/M, BR)
Text: TAF SBGR 260201Z 2606/2712 09002KT 8000 FEW011 TN15/2607Z TX27/2618Z
Forecast period: 0900 to 1100 UTC 26 April 2018
Forecast type: PROBABLE: 30 percent likelihood of the following during this time
Visibility: 2.49 miles (4.01 km)
Ceiling: 400 feet AGL
Clouds: broken clouds at 400 feet AGL
Weather: BR  (mist)
Forecast for: SBGR (GUARULHOS (CIV/M, BR)
Text: TAF SBGR 260201Z 2606/2712 09002KT 8000 FEW011 TN15/2607Z TX27/2618Z
Forecast period: 0900 to 1100 UTC 26 April 2018
Forecast type: PROBABLE: 30 percent likelihood of the following during this time
Visibility: 2.49 miles (4.01 km)
Ceiling: 400 feet AGL
Clouds: broken clouds at 400 feet AGL
Weather: BR  (mist)
Forecast for: SBGR (GUARULHOS (CIV/M, BR)
Text: TAF SBGR 260201Z 2606/2712 09002KT 8000 FEW011 TN15/2607Z TX27/2618Z
Forecast period: 1100 to 1300 UTC 26 April 2018
Forecast type: BECOMING: Conditions expected to become as follows by 1300 UTC 26 April 2018
Winds: from the ENE (70 degrees) at 9 MPH (8 knots; 4.2 m/s)
Visibility: 5 miles (8 km)
Clouds: few clouds at 1100 feet AGL
Weather: no significant weather forecast for this period
Forecast for: SBGR (GUARULHOS (CIV/M, BR)
Text: TAF SBGR 260201Z 2606/2712 09002KT 8000 FEW011 TN15/2607Z TX27/2618Z
Forecast period: 1100 to 1300 UTC 26 April 2018
Forecast type: BECOMING: Conditions expected to become as follows by 1300 UTC 26 April 2018
Winds: from the ENE (70 degrees) at 9 MPH (8 knots; 4.2 m/s)
Visibility: 5 miles (8 km)
Clouds: few clouds at 1100 feet AGL
Weather: no significant weather forecast for this period
Forecast for: SBGR (GUARULHOS (CIV/M, BR)
Text: TAF SBGR 260201Z 2606/2712 09002KT 8000 FEW011 TN15/2607Z TX27/2618Z
Forecast period: 1300 to 1900 UTC 26 April 2018
Forecast type: BECOMING: Conditions expected to become as follows by 1500 UTC 26 April 2018
Winds: from the E (80 degrees) at 6 MPH (5 knots; 2.6 m/s)
Visibility: 6 or more miles (10+ km)
Weather: NSW  (no significant weather)
Forecast for: SBGR (GUARULHOS (CIV/M, BR)
Text: TAF SBGR 260201Z 2606/2712 09002KT 8000 FEW011 TN15/2607Z TX27/2618Z
Forecast period: 1300 to 1900 UTC 26 April 2018
Forecast type: BECOMING: Conditions expected to become as follows by 1500 UTC 26 April 2018
Winds: from the E (80 degrees) at 6 MPH (5 knots; 2.6 m/s)
Visibility: 6 or more miles (10+ km)
Weather: NSW  (no significant weather)
Forecast for: SBGR (GUARULHOS (CIV/M, BR)
Text: TAF SBGR 260201Z 2606/2712 09002KT 8000 FEW011 TN15/2607Z TX27/2618Z
Forecast period: 1900 to 2100 UTC 26 April 2018
Forecast type: BECOMING: Conditions expected to become as follows by 2100 UTC 26 April 2018
Winds: from the SE (140 degrees) at 6 MPH (5 knots; 2.6 m/s)
Visibility: 5 miles (8 km)
Clouds: few clouds at 2500 feet AGL
Weather: NSW  (no significant weather)
Forecast for: SBGR (GUARULHOS (CIV/M, BR)
Text: TAF SBGR 260201Z 2606/2712 09002KT 8000 FEW011 TN15/2607Z TX27/2618Z
Forecast period: 1900 to 2100 UTC 26 April 2018
Forecast type: BECOMING: Conditions expected to become as follows by 2100 UTC 26 April 2018
Winds: from the SE (140 degrees) at 6 MPH (5 knots; 2.6 m/s)
Visibility: 5 miles (8 km)
Clouds: few clouds at 2500 feet AGL
Weather: NSW  (no significant weather)
Forecast for: SBGR (GUARULHOS (CIV/M, BR)
Text: TAF SBGR 260201Z 2606/2712 09002KT 8000 FEW011 TN15/2607Z TX27/2618Z
Forecast period: 2100 UTC 26 April 2018 to 0100 UTC 27 April 2018
Forecast type: BECOMING: Conditions expected to become as follows by 2300 UTC 26 April 2018
Winds: from the SE (140 degrees) at 6 MPH (5 knots; 2.6 m/s)
Visibility: 5 miles (8 km)
Clouds: scattered clouds at 1500 feet AGL
Weather: NSW  (no significant weather)
Forecast for: SBGR (GUARULHOS (CIV/M, BR)
Text: TAF SBGR 260201Z 2606/2712 09002KT 8000 FEW011 TN15/2607Z TX27/2618Z
Forecast period: 2100 UTC 26 April 2018 to 0100 UTC 27 April 2018
Forecast type: BECOMING: Conditions expected to become as follows by 2300 UTC 26 April 2018
Winds: from the SE (140 degrees) at 6 MPH (5 knots; 2.6 m/s)
Visibility: 5 miles (8 km)
Clouds: scattered clouds at 1500 feet AGL
Weather: NSW  (no significant weather)
Forecast for: SBGR (GUARULHOS (CIV/M, BR)
Text: TAF SBGR 260201Z 2606/2712 09002KT 8000 FEW011 TN15/2607Z TX27/2618Z
Forecast period: 0100 to 1200 UTC 27 April 2018
Forecast type: BECOMING: Conditions expected to become as follows by 0300 UTC 27 April 2018
Winds: from the ESE (110 degrees) at 3 MPH (3 knots; 1.6 m/s)
Visibility: 5 miles (8 km)
Weather: NSW  (no significant weather)
Forecast for: SBGR (GUARULHOS (CIV/M, BR)
Text: TAF SBGR 260201Z 2606/2712 09002KT 8000 FEW011 TN15/2607Z TX27/2618Z
Forecast period: 0100 to 1200 UTC 27 April 2018
Forecast type: BECOMING: Conditions expected to become as follows by 0300 UTC 27 April 2018
Winds: from the ESE (110 degrees) at 3 MPH (3 knots; 1.6 m/s)
Visibility: 5 miles (8 km)
Weather: NSW  (no significant weather)
Forecast for: SBGR (GUARULHOS (CIV/M, BR)
Text: TAF SBGR 260201Z 2606/2712 09002KT 8000 FEW011 TN15/2607Z TX27/2618Z
Forecast period: 0900 to 1100 UTC 27 April 2018
Forecast type: PROBABLE: 30 percent likelihood of the following during this time
Visibility: 2.49 miles (4.01 km)
Ceiling: 200 feet AGL
Clouds: broken clouds at 200 feet AGL
Weather: BR  (mist)
Forecast for: SBGR (GUARULHOS (CIV/M, BR)
Text: TAF SBGR 260201Z 2606/2712 09002KT 8000 FEW011 TN15/2607Z TX27/2618Z
Forecast period: 0900 to 1100 UTC 27 April 2018
Forecast type: PROBABLE: 30 percent likelihood of the following during this time
Visibility: 2.49 miles (4.01 km)
Ceiling: 200 feet AGL
Clouds: broken clouds at 200 feet AGL
Weather: BR  (mist)

MAPA DO AERODROMO


Desenvolvido por Virtual Airlines Manager




Modificado por Servidor Brasil Amigos